Time;durP1;ratioP1;P1;durP2;ratioP2;P2;SDS_P1;SDS_P2;PMS_P1;PMS_P2;Temp;Humidity;BMP_temperature;BMP_pressure;BME280_temperature;BME280_humidity;BME280_pressure;Samples;Min_cycle;Max_cycle;Signal;HPM_P1;HPM_P2
2023/10/24 00:00:33;;;;;;;10.63;6.30;;;;;;;-148.88;100.00;-17125.47;4992757;28;20117;-72
2023/10/24 00:02:58;;;;;;;9.52;7.03;;;;;;;-148.88;100.00;-17125.47;4992457;28;20541;-71
2023/10/24 00:05:24;;;;;;;9.20;6.45;;;;;;;-148.88;100.00;-17125.47;4992819;28;20393;-72
2023/10/24 00:07:49;;;;;;;9.32;6.82;;;;;;;-148.88;100.00;-17125.47;4992716;28;20034;-72
2023/10/24 00:10:16;;;;;;;8.50;5.95;;;;;;;-148.88;100.00;-17125.47;4991179;28;20065;-72
2023/10/24 00:12:41;;;;;;;7.40;5.78;;;;;;;-148.88;100.00;-17125.47;4992508;28;20397;-72
2023/10/24 00:15:06;;;;;;;10.15;6.45;;;;;;;-148.88;100.00;-17125.47;4992610;28;20026;-72
2023/10/24 00:17:32;;;;;;;8.65;6.60;;;;;;;-148.88;100.00;-17125.47;4992868;28;20415;-72
2023/10/24 00:19:57;;;;;;;9.95;6.03;;;;;;;-148.88;100.00;-17125.47;4992550;28;20022;-72
2023/10/24 00:22:22;;;;;;;11.30;6.22;;;;;;;-148.88;100.00;-17125.47;4992566;28;20106;-72
2023/10/24 00:24:48;;;;;;;9.70;6.00;;;;;;;-148.88;100.00;-17125.47;4992607;28;20034;-71
2023/10/24 00:27:13;;;;;;;8.13;5.97;;;;;;;-148.88;100.00;-17125.47;4992474;28;20023;-72
2023/10/24 00:29:38;;;;;;;8.18;5.72;;;;;;;-148.88;100.00;-17125.47;4992503;28;20548;-72
2023/10/24 00:32:04;;;;;;;7.20;5.25;;;;;;;-148.88;100.00;-17125.47;4991257;28;20030;-72
2023/10/24 00:34:30;;;;;;;9.32;5.88;;;;;;;-148.88;100.00;-17125.47;4992409;28;20033;-72
2023/10/24 00:36:56;;;;;;;12.55;5.63;;;;;;;-148.88;100.00;-17125.47;4991249;28;20137;-72
2023/10/24 00:39:22;;;;;;;7.35;4.82;;;;;;;-148.88;100.00;-17125.47;4992285;28;20036;-71
2023/10/24 00:41:47;;;;;;;7.32;4.72;;;;;;;-148.88;100.00;-17125.47;4992379;28;20045;-71
2023/10/24 00:44:13;;;;;;;7.55;5.40;;;;;;;-148.88;100.00;-17125.47;4991052;28;20034;-72
2023/10/24 00:46:39;;;;;;;10.10;5.60;;;;;;;-148.88;100.00;-17125.47;4992465;28;20026;-72
2023/10/24 00:49:06;;;;;;;7.53;4.60;;;;;;;-148.88;100.00;-17125.47;4992354;28;20026;-71
2023/10/24 00:51:32;;;;;;;11.65;4.82;;;;;;;-148.88;100.00;-17125.47;4992558;28;20118;-72
2023/10/24 00:53:59;;;;;;;6.63;4.82;;;;;;;-148.88;100.00;-17125.47;4992744;28;20027;-71
2023/10/24 00:56:25;;;;;;;7.30;4.65;;;;;;;-148.88;100.00;-17125.47;4992583;28;20030;-72
2023/10/24 00:58:52;;;;;;;8.85;4.63;;;;;;;-148.88;100.00;-17125.47;4992449;28;20022;-71
2023/10/24 01:01:17;;;;;;;8.25;4.25;;;;;;;-148.88;100.00;-17125.47;4992335;28;20162;-72
2023/10/24 01:03:46;;;;;;;9.48;5.13;;;;;;;-148.88;100.00;-17125.47;4990963;28;20113;-72
2023/10/24 01:06:12;;;;;;;8.88;3.92;;;;;;;-148.88;100.00;-17125.47;4992271;28;20030;-71
2023/10/24 01:08:37;;;;;;;10.13;4.55;;;;;;;-148.88;100.00;-17125.47;4992302;28;20027;-72
2023/10/24 01:11:04;;;;;;;7.70;3.95;;;;;;;-148.88;100.00;-17125.47;4992113;28;20054;-72
2023/10/24 01:13:32;;;;;;;8.57;3.97;;;;;;;-148.88;100.00;-17125.47;4992151;28;20033;-71
2023/10/24 01:15:57;;;;;;;7.38;3.60;;;;;;;-148.88;100.00;-17125.47;4993826;28;20026;-71
2023/10/24 01:18:23;;;;;;;7.68;3.72;;;;;;;-148.88;100.00;-17125.47;4995524;28;20042;-72
2023/10/24 01:20:48;;;;;;;5.32;3.33;;;;;;;-148.88;100.00;-17125.47;4995409;28;20022;-71
2023/10/24 01:23:14;;;;;;;5.97;3.10;;;;;;;-148.88;100.00;-17125.47;4995405;28;20061;-72
2023/10/24 01:25:41;;;;;;;7.18;3.50;;;;;;;-148.88;100.00;-17125.47;4995364;28;20109;-72
2023/10/24 01:28:08;;;;;;;6.70;3.00;;;;;;;-148.88;100.00;-17125.47;4995443;28;20374;-72
2023/10/24 01:30:34;;;;;;;8.90;3.20;;;;;;;-148.88;100.00;-17125.47;4995141;28;20022;-71
2023/10/24 01:32:59;;;;;;;6.88;3.53;;;;;;;-148.88;100.00;-17125.47;4993939;28;20037;-72
2023/10/24 01:35:28;;;;;;;7.88;3.25;;;;;;;-148.88;100.00;-17125.47;4995202;28;20051;-72
2023/10/24 01:37:54;;;;;;;5.95;2.88;;;;;;;-148.88;100.00;-17125.47;4995318;28;20041;-71
2023/10/24 01:40:19;;;;;;;6.25;2.67;;;;;;;-148.88;100.00;-17125.47;4993687;28;20482;-71
2023/10/24 01:42:44;;;;;;;5.93;2.60;;;;;;;-148.88;100.00;-17125.47;4995062;28;20049;-72
2023/10/24 01:45:10;;;;;;;4.78;2.60;;;;;;;-148.88;100.00;-17125.47;4995067;28;20490;-72
2023/10/24 01:47:35;;;;;;;6.30;2.50;;;;;;;-148.88;100.00;-17125.47;4994994;28;20077;-72
2023/10/24 01:50:02;;;;;;;7.38;2.25;;;;;;;-148.88;100.00;-17125.47;4994882;28;20039;-72
2023/10/24 01:52:28;;;;;;;7.43;2.60;;;;;;;-148.88;100.00;-17125.47;4994936;28;20027;-72
2023/10/24 01:54:53;;;;;;;5.72;2.50;;;;;;;-148.88;100.00;-17125.47;4994901;28;20031;-72
2023/10/24 01:57:19;;;;;;;6.65;2.88;;;;;;;-148.88;100.00;-17125.47;4995089;28;20030;-71
2023/10/24 01:59:44;;;;;;;9.52;2.78;;;;;;;-148.88;100.00;-17125.47;4993293;28;20134;-71
2023/10/24 02:02:10;;;;;;;6.75;2.78;;;;;;;-148.88;100.00;-17125.47;4994883;28;20048;-72
2023/10/24 02:04:35;;;;;;;6.60;2.80;;;;;;;-148.88;100.00;-17125.47;4994761;28;20022;-71
2023/10/24 02:07:01;;;;;;;6.65;2.50;;;;;;;-148.88;100.00;-17125.47;4994802;28;20054;-72
2023/10/24 02:09:29;;;;;;;7.13;3.20;;;;;;;-148.88;100.00;-17125.47;4994592;28;20093;-72
2023/10/24 02:11:55;;;;;;;6.13;2.60;;;;;;;-148.88;100.00;-17125.47;4993285;28;20126;-72
2023/10/24 02:14:21;;;;;;;6.75;2.58;;;;;;;-148.88;100.00;-17125.47;4994567;28;20105;-72
2023/10/24 02:16:47;;;;;;;9.05;2.90;;;;;;;-148.88;100.00;-17125.47;4993104;28;20037;-72
2023/10/24 02:19:12;;;;;;;5.30;2.60;;;;;;;-148.88;100.00;-17125.47;4994228;28;20018;-71
2023/10/24 02:21:38;;;;;;;5.45;2.63;;;;;;;-148.88;100.00;-17125.47;4994474;28;20085;-72
2023/10/24 02:24:03;;;;;;;10.77;3.13;;;;;;;-148.88;100.00;-17125.47;4994399;28;20022;-72
2023/10/24 02:26:29;;;;;;;7.03;2.20;;;;;;;-148.88;100.00;-17125.47;4994032;28;20023;-72
2023/10/24 02:28:54;;;;;;;7.65;3.25;;;;;;;-148.88;100.00;-17125.47;4994398;28;20392;-72
2023/10/24 02:31:19;;;;;;;8.38;2.60;;;;;;;-148.88;100.00;-17125.47;4993220;28;20465;-72
2023/10/24 02:33:45;;;;;;;9.27;3.13;;;;;;;-148.88;100.00;-17125.47;4994206;28;20508;-71
2023/10/24 02:36:11;;;;;;;7.65;2.67;;;;;;;-148.88;100.00;-17125.47;4992845;28;20023;-71
2023/10/24 02:38:37;;;;;;;7.53;3.22;;;;;;;-148.88;100.00;-17125.47;4994092;28;20027;-71
2023/10/24 02:41:04;;;;;;;5.82;2.70;;;;;;;-148.88;100.00;-17125.47;4994014;28;20106;-72
2023/10/24 02:43:30;;;;;;;7.25;3.00;;;;;;;-148.88;100.00;-17125.47;4994190;28;20027;-71
2023/10/24 02:45:57;;;;;;;6.80;3.05;;;;;;;-148.88;100.00;-17125.47;4994002;28;20033;-72
2023/10/24 02:48:22;;;;;;;9.23;3.72;;;;;;;-148.88;100.00;-17125.47;4993882;28;20042;-72
2023/10/24 02:50:55;;;;;;;8.77;3.05;;;;;;;-148.88;100.00;-17125.47;4993978;28;20441;-72
2023/10/24 02:53:21;;;;;;;8.40;3.15;;;;;;;-148.88;100.00;-17125.47;4993938;28;20038;-72
2023/10/24 02:55:47;;;;;;;10.15;3.22;;;;;;;-148.88;100.00;-17125.47;4993762;28;20102;-72
2023/10/24 02:58:13;;;;;;;8.30;3.03;;;;;;;-148.88;100.00;-17125.47;4994055;28;20026;-72
2023/10/24 03:00:39;;;;;;;6.68;3.33;;;;;;;-148.88;100.00;-17125.47;4993634;28;20030;-71
2023/10/24 03:03:05;;;;;;;9.30;3.00;;;;;;;-148.88;100.00;-17125.47;4992468;28;20473;-72
2023/10/24 03:05:30;;;;;;;9.45;3.10;;;;;;;-148.88;100.00;-17125.47;4993718;28;20034;-71
2023/10/24 03:07:55;;;;;;;5.35;2.85;;;;;;;-148.88;100.00;-17125.47;4993614;28;20033;-71
2023/10/24 03:10:21;;;;;;;6.28;2.92;;;;;;;-148.88;100.00;-17125.47;4993356;28;20032;-72
2023/10/24 03:12:47;;;;;;;5.55;3.10;;;;;;;-148.88;100.00;-17125.47;4993499;28;20030;-71
2023/10/24 03:15:12;;;;;;;8.65;2.85;;;;;;;-148.88;100.00;-17125.47;4993390;28;20063;-72
2023/10/24 03:17:37;;;;;;;6.05;2.97;;;;;;;-148.88;100.00;-17125.47;4993582;28;20027;-72
2023/10/24 03:20:05;;;;;;;6.50;2.67;;;;;;;-148.88;100.00;-17125.47;4991886;28;20030;-72
2023/10/24 03:22:31;;;;;;;7.72;3.10;;;;;;;-148.88;100.00;-17125.47;4993270;28;20034;-72
2023/10/24 03:24:56;;;;;;;8.52;3.15;;;;;;;-148.88;100.00;-17125.47;4993281;28;20140;-72
2023/10/24 03:27:21;;;;;;;6.10;3.15;;;;;;;-148.88;100.00;-17125.47;4993758;28;20153;-71
2023/10/24 03:29:47;;;;;;;9.98;2.88;;;;;;;-148.88;100.00;-17125.47;4992058;28;20022;-71
2023/10/24 03:32:13;;;;;;;7.93;2.90;;;;;;;-148.88;100.00;-17125.47;4993572;28;20063;-73
2023/10/24 03:34:39;;;;;;;8.45;3.15;;;;;;;-148.88;100.00;-17125.47;4993317;28;20076;-72
2023/10/24 03:37:05;;;;;;;7.07;3.08;;;;;;;-148.88;100.00;-17125.47;4993300;28;20027;-72
2023/10/24 03:39:30;;;;;;;8.05;3.25;;;;;;;-148.88;100.00;-17125.47;4992645;28;20105;-71
2023/10/24 03:41:56;;;;;;;7.50;3.33;;;;;;;-148.88;100.00;-17125.47;4991927;28;20120;-71
2023/10/24 03:44:24;;;;;;;7.25;3.42;;;;;;;-148.88;100.00;-17125.47;4993226;28;20054;-71
2023/10/24 03:46:50;;;;;;;8.27;3.42;;;;;;;-148.88;100.00;-17125.47;4991947;28;20023;-71
2023/10/24 03:49:16;;;;;;;6.03;3.10;;;;;;;-148.88;100.00;-17125.47;4993127;28;20362;-71
2023/10/24 03:51:42;;;;;;;5.72;3.15;;;;;;;-148.88;100.00;-17125.47;4993079;28;20033;-72
2023/10/24 03:54:07;;;;;;;8.25;3.42;;;;;;;-148.88;100.00;-17125.47;4991839;28;20117;-73
2023/10/24 03:56:33;;;;;;;8.05;3.25;;;;;;;-148.88;100.00;-17125.47;4993209;28;20093;-72
2023/10/24 03:58:59;;;;;;;6.95;3.17;;;;;;;-148.88;100.00;-17125.47;4992179;28;20061;-72
2023/10/24 04:01:24;;;;;;;8.70;3.53;;;;;;;-148.88;100.00;-17125.47;4993053;28;20068;-71
2023/10/24 04:03:49;;;;;;;6.10;3.20;;;;;;;-148.88;100.00;-17125.47;4993184;28;20072;-71
2023/10/24 04:06:15;;;;;;;6.75;3.05;;;;;;;-148.88;100.00;-17125.47;4993121;28;20054;-71
2023/10/24 04:08:40;;;;;;;7.05;3.50;;;;;;;-148.88;100.00;-17125.47;4992822;28;20049;-71
2023/10/24 04:11:16;;;;;;;6.13;3.00;;;;;;;-148.88;100.00;-17125.47;4993041;28;20058;-71
2023/10/24 04:13:46;;;;;;;6.90;3.50;;;;;;;-148.88;100.00;-17125.47;4992975;28;20442;-71
2023/10/24 04:16:12;;;;;;;5.97;3.00;;;;;;;-148.88;100.00;-17125.47;4992184;28;20026;-72
2023/10/24 04:18:38;;;;;;;7.20;3.25;;;;;;;-148.88;100.00;-17125.47;4992898;28;20029;-71
2023/10/24 04:21:03;;;;;;;7.97;3.00;;;;;;;-148.88;100.00;-17125.47;4992769;28;20033;-71
2023/10/24 04:23:29;;;;;;;6.82;3.50;;;;;;;-148.88;100.00;-17125.47;4992765;28;20026;-72
2023/10/24 04:25:55;;;;;;;6.90;3.45;;;;;;;-148.88;100.00;-17125.47;4992760;28;20018;-72
2023/10/24 04:28:23;;;;;;;8.20;3.53;;;;;;;-148.88;100.00;-17125.47;4992815;28;20034;-71
2023/10/24 04:30:51;;;;;;;11.30;3.63;;;;;;;-148.88;100.00;-17125.47;4992699;28;20026;-71
2023/10/24 04:33:16;;;;;;;6.78;3.30;;;;;;;-148.88;100.00;-17125.47;4992680;28;20084;-71
2023/10/24 04:35:45;;;;;;;7.15;3.28;;;;;;;-148.88;100.00;-17125.47;4992867;28;20026;-72
2023/10/24 04:38:11;;;;;;;5.88;3.55;;;;;;;-148.88;100.00;-17125.47;4992690;28;20088;-71
2023/10/24 04:40:38;;;;;;;7.28;3.30;;;;;;;-148.88;100.00;-17125.47;4992490;28;20385;-71
2023/10/24 04:43:04;;;;;;;5.78;3.22;;;;;;;-148.88;100.00;-17125.47;4991347;28;20078;-71
2023/10/24 04:45:31;;;;;;;8.70;3.20;;;;;;;-148.88;100.00;-17125.47;4992817;28;20022;-72
2023/10/24 04:47:57;;;;;;;8.52;4.10;;;;;;;-148.88;100.00;-17125.47;4993216;28;20404;-71
2023/10/24 04:50:22;;;;;;;8.02;4.15;;;;;;;-148.88;100.00;-17125.47;4993704;28;20556;-71
2023/10/24 04:52:49;;;;;;;7.35;3.92;;;;;;;-148.88;100.00;-17125.47;4996568;28;20030;-71
2023/10/24 04:55:14;;;;;;;7.82;4.20;;;;;;;-148.88;100.00;-17125.47;4996604;28;20030;-71
2023/10/24 04:57:41;;;;;;;9.18;3.85;;;;;;;-148.88;100.00;-17125.47;4996913;28;20068;-71
2023/10/24 05:00:07;;;;;;;5.93;3.47;;;;;;;-148.88;100.00;-17125.47;4995011;28;20023;-71
2023/10/24 05:02:33;;;;;;;6.05;3.90;;;;;;;-148.88;100.00;-17125.47;4994947;28;20022;-71
2023/10/24 05:04:58;;;;;;;8.05;3.60;;;;;;;-148.88;100.00;-17125.47;4996401;28;20042;-72
2023/10/24 05:07:23;;;;;;;8.32;3.60;;;;;;;-148.88;100.00;-17125.47;4996575;28;20584;-72
2023/10/24 05:09:50;;;;;;;9.57;3.50;;;;;;;-148.88;100.00;-17125.47;4996281;28;20026;-72
2023/10/24 05:12:15;;;;;;;7.30;3.53;;;;;;;-148.88;100.00;-17125.47;4994687;28;20026;-72
2023/10/24 05:14:40;;;;;;;7.75;4.28;;;;;;;-148.88;100.00;-17125.47;4996265;28;20374;-72
2023/10/24 05:17:06;;;;;;;8.95;4.88;;;;;;;-148.88;100.00;-17125.47;4996471;28;20030;-73
2023/10/24 05:19:31;;;;;;;6.32;3.58;;;;;;;-148.88;100.00;-17125.47;4995956;28;20166;-75
2023/10/24 05:21:57;;;;;;;9.63;3.78;;;;;;;-148.88;100.00;-17125.47;4996275;28;20415;-73
2023/10/24 05:24:22;;;;;;;8.80;4.47;;;;;;;-148.88;100.00;-17125.47;4996063;28;20046;-72
2023/10/24 05:26:48;;;;;;;8.25;4.00;;;;;;;-148.88;100.00;-17125.47;4995954;28;20033;-73
2023/10/24 05:29:13;;;;;;;8.80;3.97;;;;;;;-148.88;100.00;-17125.47;4995833;28;20023;-72
2023/10/24 05:31:38;;;;;;;8.32;3.88;;;;;;;-148.88;100.00;-17125.47;4995041;28;20022;-71
2023/10/24 05:34:04;;;;;;;8.05;4.30;;;;;;;-148.88;100.00;-17125.47;4996107;28;20109;-72
2023/10/24 05:36:29;;;;;;;7.28;3.70;;;;;;;-148.88;100.00;-17125.47;4995954;28;20077;-71
2023/10/24 05:38:55;;;;;;;6.18;3.92;;;;;;;-148.88;100.00;-17125.47;4995533;28;20037;-72
2023/10/24 05:41:21;;;;;;;7.00;4.20;;;;;;;-148.88;100.00;-17125.47;4995599;28;20019;-71
2023/10/24 05:43:46;;;;;;;7.93;4.20;;;;;;;-148.88;100.00;-17125.47;4995697;28;20106;-71
2023/10/24 05:46:11;;;;;;;8.77;4.38;;;;;;;-148.88;100.00;-17125.47;4995882;28;20122;-71
2023/10/24 05:48:38;;;;;;;7.55;4.47;;;;;;;-148.88;100.00;-17125.47;4995602;28;20029;-71
2023/10/24 05:51:04;;;;;;;9.82;4.38;;;;;;;-148.88;100.00;-17125.47;4994228;28;20048;-71
2023/10/24 05:53:29;;;;;;;5.45;4.10;;;;;;;-148.88;100.00;-17125.47;4995935;28;20451;-71
2023/10/24 05:55:55;;;;;;;11.40;4.47;;;;;;;-148.88;100.00;-17125.47;4995508;28;20521;-71
2023/10/24 05:58:21;;;;;;;5.47;4.03;;;;;;;-148.88;100.00;-17125.47;4995596;28;20033;-72
2023/10/24 06:00:46;;;;;;;6.93;4.13;;;;;;;-148.88;100.00;-17125.47;4994465;28;20489;-71
2023/10/24 06:03:12;;;;;;;8.02;4.50;;;;;;;-148.88;100.00;-17125.47;4995230;28;20030;-71
2023/10/24 06:05:37;;;;;;;6.10;4.60;;;;;;;-148.88;100.00;-17125.47;4993741;28;20030;-71
2023/10/24 06:08:03;;;;;;;12.93;4.68;;;;;;;-148.88;100.00;-17125.47;4995288;28;20054;-72
2023/10/24 06:10:28;;;;;;;8.20;5.18;;;;;;;-148.88;100.00;-17125.47;4995105;28;20393;-71
2023/10/24 06:12:53;;;;;;;9.93;5.47;;;;;;;-148.88;100.00;-17125.47;4995106;28;20022;-72
2023/10/24 06:15:19;;;;;;;8.82;6.30;;;;;;;-148.88;100.00;-17125.47;4995270;28;20116;-73
2023/10/24 06:17:44;;;;;;;6.65;4.85;;;;;;;-148.88;100.00;-17125.47;4995219;28;20030;-73
2023/10/24 06:20:10;;;;;;;6.65;5.15;;;;;;;-148.88;100.00;-17125.47;4995036;28;20025;-72
2023/10/24 06:22:35;;;;;;;6.72;5.10;;;;;;;-148.88;100.00;-17125.47;4995079;28;20026;-72
2023/10/24 06:25:01;;;;;;;9.75;5.88;;;;;;;-148.88;100.00;-17125.47;4995067;28;20033;-72
2023/10/24 06:27:27;;;;;;;9.35;6.72;;;;;;;-148.88;100.00;-17125.47;4995072;28;20022;-73
2023/10/24 06:29:52;;;;;;;11.70;6.68;;;;;;;-148.88;100.00;-17125.47;4994976;28;20015;-72
2023/10/24 06:32:20;;;;;;;7.25;5.68;;;;;;;-148.88;100.00;-17125.47;4995234;28;20022;-73
2023/10/24 06:34:45;;;;;;;8.00;5.68;;;;;;;-148.88;100.00;-17125.47;4994921;28;20489;-73
2023/10/24 06:37:12;;;;;;;8.15;5.75;;;;;;;-148.88;100.00;-17125.47;4994836;28;20037;-73
2023/10/24 06:39:38;;;;;;;7.18;4.78;;;;;;;-148.88;100.00;-17125.47;4994509;28;20033;-72
2023/10/24 06:42:03;;;;;;;7.30;4.80;;;;;;;-148.88;100.00;-17125.47;4994562;28;20045;-72
2023/10/24 06:44:32;;;;;;;6.47;4.50;;;;;;;-148.88;100.00;-17125.47;4994692;28;20081;-72
2023/10/24 06:47:00;;;;;;;5.22;4.05;;;;;;;-148.88;100.00;-17125.47;4994399;28;20030;-72
2023/10/24 06:49:25;;;;;;;5.68;4.40;;;;;;;-148.88;100.00;-17125.47;4992978;28;20580;-72
2023/10/24 06:51:51;;;;;;;5.30;3.95;;;;;;;-148.88;100.00;-17125.47;4994601;28;20030;-72
2023/10/24 06:54:16;;;;;;;8.82;4.40;;;;;;;-148.88;100.00;-17125.47;4994350;28;20096;-73
2023/10/24 06:56:42;;;;;;;5.13;3.70;;;;;;;-148.88;100.00;-17125.47;4994238;28;20405;-72
2023/10/24 06:59:07;;;;;;;4.28;3.25;;;;;;;-148.88;100.00;-17125.47;4994144;28;20065;-72
2023/10/24 07:01:32;;;;;;;6.22;3.72;;;;;;;-148.88;100.00;-17125.47;4994385;28;20033;-72
2023/10/24 07:03:58;;;;;;;7.25;3.70;;;;;;;-148.88;100.00;-17125.47;4994386;28;20029;-73
2023/10/24 07:06:23;;;;;;;6.90;3.75;;;;;;;-148.88;100.00;-17125.47;4994092;28;20030;-73
2023/10/24 07:08:48;;;;;;;6.95;4.63;;;;;;;-148.88;100.00;-17125.47;4994038;28;20029;-73
2023/10/24 07:11:14;;;;;;;6.82;4.20;;;;;;;-148.88;100.00;-17125.47;4993993;28;20026;-73
2023/10/24 07:13:40;;;;;;;7.43;4.50;;;;;;;-148.88;100.00;-17125.47;4993665;28;20544;-73
2023/10/24 07:16:16;;;;;;;7.38;4.45;;;;;;;-148.88;100.00;-17125.47;4993871;28;20022;-73
2023/10/24 07:18:42;;;;;;;7.45;5.13;;;;;;;-148.88;100.00;-17125.47;4993815;28;20050;-72
2023/10/24 07:21:07;;;;;;;7.35;4.60;;;;;;;-148.88;100.00;-17125.47;4993617;28;20069;-72
2023/10/24 07:23:33;;;;;;;6.43;4.60;;;;;;;-148.88;100.00;-17125.47;4993548;28;20027;-72
2023/10/24 07:25:59;;;;;;;7.60;4.55;;;;;;;-148.88;100.00;-17125.47;4993766;28;20080;-72
2023/10/24 07:28:26;;;;;;;6.35;4.43;;;;;;;-148.88;100.00;-17125.47;4993358;28;20113;-72
2023/10/24 07:30:54;;;;;;;6.70;4.93;;;;;;;-148.88;100.00;-17125.47;4993435;28;20045;-72
2023/10/24 07:33:22;;;;;;;5.30;4.13;;;;;;;-148.88;100.00;-17125.47;4993305;28;20053;-72
2023/10/24 07:35:50;;;;;;;5.80;4.55;;;;;;;-148.88;100.00;-17125.47;4992542;28;20022;-72
2023/10/24 07:38:16;;;;;;;5.68;4.15;;;;;;;-148.88;100.00;-17125.47;4993337;28;20022;-73
2023/10/24 07:40:42;;;;;;;9.07;4.90;;;;;;;-148.88;100.00;-17125.47;4993365;28;20076;-72
2023/10/24 07:43:07;;;;;;;5.65;4.13;;;;;;;-148.88;100.00;-17125.47;4993184;28;20106;-72
2023/10/24 07:45:33;;;;;;;8.50;4.80;;;;;;;-148.88;100.00;-17125.47;4993211;28;20030;-72
2023/10/24 07:50:32;;;;;;;9.40;5.07;;;;;;;-148.88;100.00;-17125.47;5030467;28;20488;-75
2023/10/24 07:52:58;;;;;;;7.03;5.20;;;;;;;-148.88;100.00;-17125.47;5030936;28;20026;-75
2023/10/24 07:55:23;;;;;;;6.40;4.60;;;;;;;-148.88;100.00;-17125.47;5032110;28;20089;-75
2023/10/24 07:57:51;;;;;;;8.48;4.97;;;;;;;-148.88;100.00;-17125.47;5030824;28;20112;-75
2023/10/24 08:00:17;;;;;;;6.43;4.10;;;;;;;-148.88;100.00;-17125.47;5030671;28;20527;-75
2023/10/24 08:02:42;;;;;;;7.28;5.10;;;;;;;-148.88;100.00;-17125.47;5032177;28;20053;-75
2023/10/24 08:05:08;;;;;;;6.38;4.00;;;;;;;-148.88;100.00;-17125.47;5030854;28;20399;-75
2023/10/24 08:07:33;;;;;;;5.72;3.88;;;;;;;-148.88;100.00;-17125.47;5032153;28;20048;-75
2023/10/24 08:09:58;;;;;;;6.80;4.43;;;;;;;-148.88;100.00;-17125.47;5031993;28;20068;-75
2023/10/24 08:12:24;;;;;;;8.70;4.65;;;;;;;-148.88;100.00;-17125.47;5030773;28;20079;-75
2023/10/24 08:14:49;;;;;;;6.13;4.43;;;;;;;-148.88;100.00;-17125.47;5030918;28;20396;-75
2023/10/24 08:17:14;;;;;;;8.15;4.65;;;;;;;-148.88;100.00;-17125.47;5032111;28;20495;-75
2023/10/24 08:19:40;;;;;;;6.18;4.30;;;;;;;-148.88;100.00;-17125.47;5032113;28;20399;-74
2023/10/24 08:22:05;;;;;;;7.10;5.32;;;;;;;-148.88;100.00;-17125.47;5032586;28;20111;-74
2023/10/24 08:24:31;;;;;;;6.43;5.05;;;;;;;-148.88;100.00;-17125.47;5033384;28;20531;-75
2023/10/24 08:26:56;;;;;;;5.78;3.90;;;;;;;-148.88;100.00;-17125.47;5036045;28;20061;-75
2023/10/24 08:29:21;;;;;;;6.65;4.43;;;;;;;-148.88;100.00;-17125.47;5035841;28;20044;-75
2023/10/24 08:31:47;;;;;;;8.27;3.88;;;;;;;-148.88;100.00;-17125.47;5035850;28;20026;-75
2023/10/24 08:34:12;;;;;;;9.25;4.50;;;;;;;-148.88;100.00;-17125.47;5034421;28;20030;-75
2023/10/24 08:36:37;;;;;;;7.25;3.90;;;;;;;-148.88;100.00;-17125.47;5035966;28;20032;-75
2023/10/24 08:39:03;;;;;;;5.97;3.92;;;;;;;-148.88;100.00;-17125.47;5034248;28;20024;-74
2023/10/24 08:41:29;;;;;;;7.63;4.65;;;;;;;-148.88;100.00;-17125.47;5036020;28;20409;-75
2023/10/24 08:43:55;;;;;;;11.93;8.48;;;;;;;-148.88;100.00;-17125.47;5035871;28;20028;-75
2023/10/24 08:46:21;;;;;;;14.43;9.48;;;;;;;-148.88;100.00;-17125.47;5035543;28;20052;-75
2023/10/24 08:48:47;;;;;;;6.65;4.55;;;;;;;-148.88;100.00;-17125.47;5035658;28;20473;-75
2023/10/24 08:51:12;;;;;;;5.85;4.13;;;;;;;-148.88;100.00;-17125.47;5036101;28;20071;-75
2023/10/24 08:53:38;;;;;;;6.85;4.30;;;;;;;-148.88;100.00;-17125.47;5035661;28;20021;-75
2023/10/24 08:56:08;;;;;;;6.45;4.85;;;;;;;-148.88;100.00;-17125.47;5034091;28;20372;-75
2023/10/24 08:58:37;;;;;;;7.47;5.18;;;;;;;-148.88;100.00;-17125.47;5035628;28;20507;-75
2023/10/24 09:01:04;;;;;;;7.47;5.28;;;;;;;-148.88;100.00;-17125.47;5035457;28;20506;-75
2023/10/24 09:03:29;;;;;;;11.50;6.57;;;;;;;-148.88;100.00;-17125.47;5035238;28;20064;-75
2023/10/24 09:05:55;;;;;;;10.65;6.10;;;;;;;-148.88;100.00;-17125.47;5035280;28;20053;-75
2023/10/24 09:08:20;;;;;;;6.28;4.50;;;;;;;-148.88;100.00;-17125.47;5035377;28;20034;-75
2023/10/24 09:10:46;;;;;;;7.15;5.10;;;;;;;-148.88;100.00;-17125.47;5033748;28;20022;-75
2023/10/24 09:13:12;;;;;;;7.35;4.75;;;;;;;-148.88;100.00;-17125.47;5035596;28;20029;-75
2023/10/24 09:15:39;;;;;;;8.90;4.97;;;;;;;-148.88;100.00;-17125.47;5035093;28;20037;-74
2023/10/24 09:18:05;;;;;;;5.70;5.10;;;;;;;-148.88;100.00;-17125.47;5033514;28;20484;-74
2023/10/24 09:20:32;;;;;;;5.55;4.70;;;;;;;-148.88;100.00;-17125.47;5034777;28;20026;-75
2023/10/24 09:23:06;;;;;;;5.93;4.80;;;;;;;-148.88;100.00;-17125.47;5033471;28;20071;-75
2023/10/24 09:25:31;;;;;;;10.75;7.40;;;;;;;-148.88;100.00;-17125.47;5035295;28;20021;-75
2023/10/24 09:28:17;;;;;;;10.25;6.30;;;;;;;-148.88;100.00;-17125.47;5035573;28;20499;-75
2023/10/24 09:30:42;;;;;;;9.00;6.47;;;;;;;-148.88;100.00;-17125.47;5035560;28;20019;-75
2023/10/24 09:33:08;;;;;;;10.98;8.05;;;;;;;-148.88;100.00;-17125.47;5035404;28;20108;-75
2023/10/24 09:35:36;;;;;;;10.50;8.30;;;;;;;-148.88;100.00;-17125.47;5034812;28;20047;-75
2023/10/24 09:38:03;;;;;;;7.07;5.15;;;;;;;-148.88;100.00;-17125.47;5035093;28;20029;-76
2023/10/24 09:40:39;;;;;;;6.68;5.13;;;;;;;-148.88;100.00;-17125.47;5034942;28;20025;-75
2023/10/24 09:43:15;;;;;;;7.10;4.50;;;;;;;-148.88;100.00;-17125.47;5035029;28;20510;-75
2023/10/24 09:45:44;;;;;;;4.80;4.07;;;;;;;-148.88;100.00;-17125.47;5035014;28;20035;-75
2023/10/24 09:48:14;;;;;;;5.68;3.72;;;;;;;-148.88;100.00;-17125.47;5035043;28;20025;-75
2023/10/24 09:50:41;;;;;;;6.57;3.85;;;;;;;-148.88;100.00;-17125.47;5034822;28;20025;-75
2023/10/24 09:53:07;;;;;;;5.80;3.83;;;;;;;-148.88;100.00;-17125.47;5034824;28;20399;-74
2023/10/24 09:55:35;;;;;;;5.35;3.75;;;;;;;-148.88;100.00;-17125.47;5035120;28;20060;-74
2023/10/24 09:58:02;;;;;;;5.28;3.00;;;;;;;-148.88;100.00;-17125.47;5033882;28;20488;-75
2023/10/24 10:00:29;;;;;;;5.72;2.80;;;;;;;-148.88;100.00;-17125.47;5033304;28;20021;-75
2023/10/24 10:02:58;;;;;;;4.78;2.70;;;;;;;-148.88;100.00;-17125.47;5034719;28;20099;-75
2023/10/24 10:05:26;;;;;;;7.70;2.78;;;;;;;-148.88;100.00;-17125.47;5033542;28;20075;-75
2023/10/24 10:07:53;;;;;;;5.75;2.90;;;;;;;-148.88;100.00;-17125.47;5034688;28;20033;-75
2023/10/24 10:10:19;;;;;;;3.80;2.30;;;;;;;-148.88;100.00;-17125.47;5034643;28;20084;-75
2023/10/24 10:12:47;;;;;;;5.47;2.58;;;;;;;-148.88;100.00;-17125.47;5034760;28;20037;-75
2023/10/24 10:15:44;;;;;;;4.10;2.40;;;;;;;-148.88;100.00;-17125.47;5034587;28;20025;-75
2023/10/24 10:18:18;;;;;;;3.60;2.30;;;;;;;-148.88;100.00;-17125.47;5034374;28;20028;-75
2023/10/24 10:20:50;;;;;;;;;;;;;;;-148.88;100.00;-17125.47;5034699;28;20025;-75
2023/10/24 10:23:31;;;;;;;5.82;1.70;;;;;;;-148.88;100.00;-17125.47;5034203;28;19979;-75
2023/10/24 10:26:19;;;;;;;4.18;2.10;;;;;;;-148.88;100.00;-17125.47;5032941;28;20114;-75
2023/10/24 10:29:07;;;;;;;4.15;2.80;;;;;;;-148.88;100.00;-17125.47;5034025;28;20120;-75
2023/10/24 10:32:09;;;;;;;5.30;2.00;;;;;;;-148.88;100.00;-17125.47;5034103;28;20496;-75
2023/10/24 10:34:37;;;;;;;4.40;2.33;;;;;;;-148.88;100.00;-17125.47;5034085;28;20109;-75
2023/10/24 10:37:03;;;;;;;7.20;2.30;;;;;;;-148.88;100.00;-17125.47;5034133;28;20026;-75
2023/10/24 10:39:29;;;;;;;5.55;2.00;;;;;;;-148.88;100.00;-17125.47;5034228;28;20040;-75
2023/10/24 10:41:55;;;;;;;4.53;2.10;;;;;;;-148.88;100.00;-17125.47;5034053;28;20029;-75
2023/10/24 10:44:40;;;;;;;5.32;1.90;;;;;;;-148.88;100.00;-17125.47;5034446;28;20503;-75
2023/10/24 10:47:07;;;;;;;6.40;2.10;;;;;;;-148.88;100.00;-17125.47;5034272;28;20496;-74
2023/10/24 10:49:44;;;;;;;4.85;1.95;;;;;;;-148.88;100.00;-17125.47;5033907;28;20044;-75
2023/10/24 10:52:24;;;;;;;4.50;1.90;;;;;;;-148.88;100.00;-17125.47;5033861;28;20060;-75
2023/10/24 10:55:01;;;;;;;2.40;1.55;;;;;;;-148.88;100.00;-17125.47;5033683;28;20032;-75
2023/10/24 10:58:20;;;;;;;6.05;1.90;;;;;;;-148.88;100.00;-17125.47;5011381;28;20056;-75
2023/10/24 11:00:56;;;;;;;4.05;2.15;;;;;;;-148.88;100.00;-17125.47;5033595;28;20037;-75
2023/10/24 11:03:39;;;;;;;3.90;1.85;;;;;;;-148.88;100.00;-17125.47;5033813;28;20030;-75